createdAt,value
2018-12-08T00:01:46.844Z,72.60
2018-12-08T00:04:12.999Z,72.70
2018-12-08T00:06:39.204Z,72.70
2018-12-08T00:09:05.483Z,72.00
2018-12-08T00:11:31.731Z,72.60
2018-12-08T00:13:57.919Z,73.00
2018-12-08T00:16:24.149Z,72.10
2018-12-08T00:18:50.500Z,72.10
2018-12-08T00:21:16.655Z,72.50
2018-12-08T00:23:43.012Z,72.50
2018-12-08T00:26:11.122Z,72.70
2018-12-08T00:28:37.349Z,72.20
2018-12-08T00:31:15.927Z,72.70
2018-12-08T00:33:42.108Z,71.50
2018-12-08T00:36:08.279Z,71.80
2018-12-08T00:38:34.435Z,71.90
2018-12-08T00:41:00.580Z,71.30
2018-12-08T00:43:26.820Z,71.20
2018-12-08T00:45:52.976Z,70.90
2018-12-08T00:48:19.131Z,70.10
2018-12-08T00:50:45.302Z,70.40
2018-12-08T00:53:11.707Z,70.30
2018-12-08T00:55:37.882Z,70.10
2018-12-08T00:58:04.045Z,70.00
2018-12-08T01:00:30.208Z,70.40
2018-12-08T01:02:56.356Z,70.30
2018-12-08T01:05:22.559Z,70.10
2018-12-08T01:07:48.716Z,70.60
2018-12-08T01:10:14.992Z,70.00
2018-12-08T01:12:41.184Z,70.50
2018-12-08T01:15:07.595Z,70.60
2018-12-08T01:17:33.795Z,70.60
2018-12-08T01:19:59.959Z,69.70
2018-12-08T01:22:26.094Z,69.60
2018-12-08T01:24:52.311Z,70.00
2018-12-08T01:27:18.463Z,70.80
2018-12-08T01:29:44.634Z,71.90
2018-12-08T01:32:10.783Z,72.80
2018-12-08T01:34:36.954Z,73.50
2018-12-08T01:37:03.120Z,73.90
2018-12-08T01:39:29.288Z,74.40
2018-12-08T01:41:55.573Z,75.40
2018-12-08T01:44:21.763Z,75.20
2018-12-08T01:46:47.914Z,75.70
2018-12-08T01:49:14.187Z,75.60
2018-12-08T01:51:40.335Z,75.80
2018-12-08T01:54:06.589Z,75.60
2018-12-08T01:56:32.736Z,75.90
2018-12-08T01:58:58.979Z,75.60
2018-12-08T02:01:25.190Z,75.40
2018-12-08T02:03:52.873Z,75.80
2018-12-08T02:06:19.427Z,76.50
2018-12-08T02:08:45.741Z,76.30
2018-12-08T02:11:11.955Z,76.70
2018-12-08T02:13:38.126Z,76.60
2018-12-08T02:16:04.343Z,77.30
2018-12-08T02:18:30.491Z,76.50
2018-12-08T02:20:56.696Z,76.50
2018-12-08T02:23:22.870Z,76.10
2018-12-08T02:25:49.063Z,76.10
2018-12-08T02:28:15.220Z,76.00
2018-12-08T02:30:41.489Z,76.00
2018-12-08T02:33:07.639Z,76.60
2018-12-08T02:35:33.836Z,76.60
2018-12-08T02:38:06.942Z,76.70
2018-12-08T02:40:33.211Z,76.70
2018-12-08T02:42:59.376Z,76.60
2018-12-08T02:45:25.542Z,76.50
2018-12-08T02:47:51.739Z,77.10
2018-12-08T02:50:17.906Z,76.50
2018-12-08T02:52:44.088Z,76.50
2018-12-08T02:55:10.328Z,76.80
2018-12-08T02:57:36.501Z,76.70
2018-12-08T03:00:03.829Z,76.50
2018-12-08T03:02:30.615Z,76.30
2018-12-08T03:04:56.863Z,76.10
2018-12-08T03:07:23.059Z,76.10
2018-12-08T03:09:49.219Z,76.20
2018-12-08T03:12:15.407Z,75.90
2018-12-08T03:14:41.574Z,75.90
2018-12-08T03:17:07.736Z,75.70
2018-12-08T03:19:33.899Z,76.20
2018-12-08T03:22:00.166Z,75.90
2018-12-08T03:24:26.319Z,75.40
2018-12-08T03:26:52.470Z,75.40
2018-12-08T03:29:18.642Z,75.80
2018-12-08T03:31:44.828Z,76.10
2018-12-08T03:34:11.090Z,75.80
2018-12-08T03:36:37.247Z,76.10
2018-12-08T03:39:05.919Z,76.00
2018-12-08T03:41:32.102Z,76.20
2018-12-08T03:43:58.258Z,76.30
2018-12-08T03:46:24.434Z,75.90
2018-12-08T03:48:50.616Z,75.90
2018-12-08T03:51:16.766Z,76.50
2018-12-08T03:53:50.002Z,75.60
2018-12-08T03:56:16.384Z,75.70
2018-12-08T03:58:42.514Z,75.60
2018-12-08T04:01:08.675Z,75.40
2018-12-08T04:03:34.826Z,76.40
2018-12-08T04:06:01.100Z,76.30
2018-12-08T04:08:27.310Z,76.20
2018-12-08T04:10:53.619Z,76.40
2018-12-08T04:13:19.824Z,76.40
2018-12-08T04:15:46.112Z,76.60
2018-12-08T04:18:12.255Z,76.50
2018-12-08T04:20:38.410Z,76.50
2018-12-08T04:23:04.604Z,76.80
2018-12-08T04:25:30.782Z,76.90
2018-12-08T04:27:57.125Z,77.30
2018-12-08T04:30:23.441Z,77.90
2018-12-08T04:32:49.719Z,77.50
2018-12-08T04:35:15.888Z,77.70
2018-12-08T04:37:42.027Z,78.10
2018-12-08T04:40:08.423Z,78.00
2018-12-08T04:42:34.546Z,78.30
2018-12-08T04:45:00.706Z,78.80
2018-12-08T04:47:26.880Z,78.80
2018-12-08T04:49:53.028Z,79.40
2018-12-08T04:52:19.159Z,79.00
2018-12-08T04:54:45.383Z,79.20
2018-12-08T04:57:11.556Z,79.60
2018-12-08T04:59:37.818Z,79.60
2018-12-08T05:02:04.182Z,80.00
2018-12-08T05:04:30.493Z,79.80
2018-12-08T05:06:56.767Z,80.00
2018-12-08T05:09:22.977Z,80.00
2018-12-08T05:11:49.219Z,80.10
2018-12-08T05:14:15.431Z,80.50
2018-12-08T05:16:41.625Z,80.60
2018-12-08T05:19:07.769Z,80.90
2018-12-08T05:21:33.933Z,81.10
2018-12-08T05:24:00.100Z,80.70
2018-12-08T05:26:26.400Z,80.70
2018-12-08T05:28:52.577Z,80.50
2018-12-08T05:31:18.762Z,80.40
2018-12-08T05:33:44.915Z,80.20
2018-12-08T05:36:12.101Z,80.10
2018-12-08T05:38:38.251Z,79.90
2018-12-08T05:41:04.438Z,80.10
2018-12-08T05:43:30.615Z,79.90
2018-12-08T05:45:56.778Z,80.00
2018-12-08T05:48:23.019Z,79.60
2018-12-08T05:50:49.178Z,79.70
2018-12-08T05:53:15.375Z,79.80
2018-12-08T05:55:41.527Z,79.30
2018-12-08T05:58:07.687Z,79.30
2018-12-08T06:00:34.102Z,79.00
2018-12-08T06:03:00.237Z,79.00
2018-12-08T06:05:26.467Z,78.80
2018-12-08T06:07:52.597Z,78.40
2018-12-08T06:10:18.759Z,78.50
2018-12-08T06:12:44.994Z,78.20
2018-12-08T06:15:11.158Z,78.30
2018-12-08T06:17:37.314Z,78.30
2018-12-08T06:20:05.314Z,78.20
2018-12-08T06:22:31.588Z,78.20
2018-12-08T06:24:57.763Z,77.70
2018-12-08T06:27:24.168Z,77.70
2018-12-08T06:29:50.319Z,77.60
2018-12-08T06:32:16.502Z,77.20
2018-12-08T06:34:42.648Z,77.40
2018-12-08T06:37:08.833Z,77.20
2018-12-08T06:39:35.047Z,77.20
2018-12-08T06:42:01.320Z,77.00
2018-12-08T06:44:27.470Z,77.10
2018-12-08T06:46:53.642Z,77.20
2018-12-08T06:49:19.775Z,77.50
2018-12-08T06:51:45.943Z,77.20
2018-12-08T06:54:12.075Z,77.50
2018-12-08T06:56:38.247Z,77.40
2018-12-08T06:59:04.467Z,77.40
2018-12-08T07:01:30.763Z,77.60
2018-12-08T07:03:56.951Z,77.40
2018-12-08T07:06:23.247Z,76.90
2018-12-08T07:08:49.418Z,77.40
2018-12-08T07:11:15.635Z,77.40
2018-12-08T07:13:41.779Z,77.40
2018-12-08T07:16:07.939Z,77.20
2018-12-08T07:18:34.084Z,77.30
2018-12-08T07:21:00.251Z,77.30
2018-12-08T07:23:26.483Z,77.30
2018-12-08T07:25:52.656Z,77.00
2018-12-08T07:28:18.826Z,76.80
2018-12-08T07:30:44.963Z,76.90
2018-12-08T07:33:11.251Z,77.10
2018-12-08T07:35:37.382Z,77.00
2018-12-08T07:38:03.679Z,76.60
2018-12-08T07:40:29.938Z,76.50
2018-12-08T07:42:56.097Z,76.50
2018-12-08T07:45:22.285Z,76.30
2018-12-08T07:47:48.459Z,76.10
2018-12-08T07:50:14.608Z,76.20
2018-12-08T07:52:40.911Z,76.10
2018-12-08T07:55:07.215Z,76.50
2018-12-08T07:57:33.454Z,76.30
2018-12-08T07:59:59.732Z,75.80
2018-12-08T08:02:25.895Z,75.40
2018-12-08T08:04:52.035Z,75.20
2018-12-08T08:07:18.203Z,74.80
2018-12-08T08:09:44.358Z,74.80
2018-12-08T08:12:10.584Z,75.50
2018-12-08T08:14:36.835Z,75.30
2018-12-08T08:17:03.027Z,75.50
2018-12-08T08:19:29.178Z,75.20
2018-12-08T08:21:55.394Z,75.20
2018-12-08T08:24:21.626Z,75.10
2018-12-08T08:26:47.836Z,74.90
2018-12-08T08:29:13.998Z,74.90
2018-12-08T08:31:40.340Z,74.90
2018-12-08T08:34:06.550Z,74.70
2018-12-08T08:36:32.687Z,74.70
2018-12-08T08:38:58.911Z,74.40
2018-12-08T08:41:25.070Z,75.10
2018-12-08T08:43:51.234Z,75.30
2018-12-08T08:46:17.386Z,75.00
2018-12-08T08:48:43.683Z,75.50
2018-12-08T08:51:09.826Z,74.50
2018-12-08T08:53:36.019Z,74.30
2018-12-08T08:56:02.303Z,73.20
2018-12-08T08:58:28.515Z,72.70
2018-12-08T09:00:54.665Z,72.60
2018-12-08T09:03:20.846Z,73.20
2018-12-08T09:05:47.167Z,73.40
2018-12-08T09:08:13.335Z,72.90
2018-12-08T09:10:39.488Z,72.50
2018-12-08T09:13:05.663Z,72.70
2018-12-08T09:15:31.832Z,72.90
2018-12-08T09:17:57.992Z,72.90
2018-12-08T09:20:24.167Z,72.90
2018-12-08T09:22:50.318Z,73.80
2018-12-08T09:25:16.487Z,73.10
2018-12-08T09:27:42.643Z,73.10
2018-12-08T09:30:09.079Z,73.80
2018-12-08T09:32:35.366Z,73.60
2018-12-08T09:35:01.610Z,73.90
2018-12-08T09:37:27.875Z,74.00
2018-12-08T09:39:54.055Z,73.60
2018-12-08T09:42:20.235Z,73.90
2018-12-08T09:44:46.544Z,73.30
2018-12-08T09:47:12.716Z,73.40
2018-12-08T09:49:38.891Z,72.60
2018-12-08T09:52:05.040Z,72.30
2018-12-08T09:54:31.206Z,72.50
2018-12-08T09:56:57.373Z,72.80
2018-12-08T09:59:23.648Z,72.90
2018-12-08T10:01:49.800Z,72.00
2018-12-08T10:04:15.956Z,72.00
2018-12-08T10:06:42.092Z,72.30
2018-12-08T10:09:08.248Z,72.70
2018-12-08T10:11:34.399Z,72.60
2018-12-08T10:14:00.565Z,72.70
2018-12-08T10:16:26.703Z,72.10
2018-12-08T10:18:52.864Z,71.40
2018-12-08T10:21:19.043Z,71.40
2018-12-08T10:23:45.239Z,71.80
2018-12-08T10:26:11.395Z,71.00
2018-12-08T10:28:37.562Z,71.40
2018-12-08T10:31:03.804Z,70.80
2018-12-08T10:33:30.176Z,70.90
2018-12-08T10:35:56.317Z,71.30
2018-12-08T10:38:22.586Z,71.80
2018-12-08T10:40:48.843Z,72.80
2018-12-08T10:43:14.986Z,72.70
2018-12-08T10:45:41.235Z,73.30
2018-12-08T10:48:07.403Z,72.20
2018-12-08T10:50:33.564Z,72.20
2018-12-08T10:52:59.795Z,72.10
2018-12-08T10:55:26.019Z,72.70
2018-12-08T10:57:52.171Z,73.00
2018-12-08T11:00:24.578Z,73.00
2018-12-08T11:02:52.075Z,72.50
2018-12-08T11:05:18.467Z,73.60
2018-12-08T11:07:44.646Z,74.40
2018-12-08T11:10:10.861Z,75.20
2018-12-08T11:12:37.569Z,75.30
2018-12-08T11:15:04.415Z,76.60
2018-12-08T11:17:30.560Z,76.10
2018-12-08T11:19:56.715Z,76.80
2018-12-08T11:22:22.847Z,75.80
2018-12-08T11:24:49.010Z,76.70
2018-12-08T11:27:15.234Z,77.40
2018-12-08T11:29:41.402Z,77.00
2018-12-08T11:32:07.579Z,76.50
2018-12-08T11:34:33.767Z,77.40
2018-12-08T11:36:59.981Z,77.40
2018-12-08T11:39:26.138Z,77.60
2018-12-08T11:41:52.615Z,78.30
2018-12-08T11:44:19.118Z,77.70
2018-12-08T11:46:45.631Z,77.80
2018-12-08T11:49:11.789Z,77.70
2018-12-08T11:51:38.168Z,77.80
2018-12-08T11:54:04.395Z,76.10
2018-12-08T11:56:30.620Z,76.50
2018-12-08T11:58:56.790Z,76.40
2018-12-08T12:01:23.096Z,76.10
2018-12-08T12:03:49.250Z,76.90
2018-12-08T12:06:15.391Z,77.50
2018-12-08T12:08:41.564Z,78.30
2018-12-08T12:11:07.714Z,78.10
2018-12-08T12:13:34.905Z,77.10
2018-12-08T12:16:01.341Z,75.90
2018-12-08T12:18:27.494Z,76.70
2018-12-08T12:20:53.686Z,76.90
2018-12-08T12:23:19.834Z,76.70
2018-12-08T12:25:46.318Z,76.60
2018-12-08T12:28:12.479Z,76.10
2018-12-08T12:30:38.658Z,75.90
2018-12-08T12:33:04.832Z,76.20
2018-12-08T12:35:31.129Z,76.30
2018-12-08T12:37:57.267Z,77.30
2018-12-08T12:40:23.451Z,77.70
2018-12-08T12:42:49.602Z,77.70
2018-12-08T12:45:15.894Z,78.30
2018-12-08T12:47:42.106Z,78.00
2018-12-08T12:50:08.479Z,77.50
2018-12-08T12:52:34.614Z,78.40
2018-12-08T12:55:00.992Z,78.70
2018-12-08T12:57:27.126Z,80.60
2018-12-08T12:59:53.374Z,81.00
2018-12-08T13:02:19.515Z,82.20
2018-12-08T13:04:45.706Z,82.30
2018-12-08T13:07:11.854Z,82.00
2018-12-08T13:09:38.001Z,82.70
2018-12-08T13:12:04.390Z,82.70
2018-12-08T13:14:30.538Z,82.90
2018-12-08T13:16:56.682Z,82.90
2018-12-08T13:19:22.892Z,83.50
2018-12-08T13:21:49.155Z,83.80
2018-12-08T13:24:15.306Z,84.40
2018-12-08T13:26:41.472Z,84.80
2018-12-08T13:29:07.667Z,85.50
2018-12-08T13:31:33.819Z,84.60
2018-12-08T13:34:04.041Z,85.10
2018-12-08T13:36:30.191Z,85.30
2018-12-08T13:38:56.339Z,85.90
2018-12-08T13:41:22.522Z,85.50
2018-12-08T13:43:51.447Z,86.20
2018-12-08T13:46:17.630Z,85.90
2018-12-08T13:48:44.028Z,86.50
2018-12-08T13:51:10.291Z,87.10
2018-12-08T13:53:36.984Z,87.20
2018-12-08T13:56:03.418Z,87.20
2018-12-08T13:58:29.550Z,87.00
2018-12-08T14:00:55.715Z,87.50
2018-12-08T14:03:21.884Z,87.80
2018-12-08T14:05:48.064Z,87.90
2018-12-08T14:08:14.204Z,87.70
2018-12-08T14:10:40.452Z,87.80
2018-12-08T14:13:06.714Z,87.60
2018-12-08T14:15:32.887Z,87.70
2018-12-08T14:17:59.037Z,87.90
2018-12-08T14:20:25.966Z,87.30
2018-12-08T14:22:52.188Z,87.30
2018-12-08T14:25:18.499Z,87.50
2018-12-08T14:27:44.755Z,87.70
2018-12-08T14:30:11.153Z,87.50
2018-12-08T14:32:37.334Z,87.30
2018-12-08T14:35:03.819Z,86.70
2018-12-08T14:37:29.986Z,87.00
2018-12-08T14:39:56.293Z,87.00
2018-12-08T14:42:22.694Z,86.60
2018-12-08T14:44:48.990Z,86.70
2018-12-08T14:47:15.283Z,86.80
2018-12-08T14:49:41.423Z,86.60
2018-12-08T14:52:07.576Z,86.00
2018-12-08T14:54:33.770Z,86.30
2018-12-08T14:57:00.195Z,86.70
2018-12-08T14:59:26.350Z,86.10
2018-12-08T15:01:52.522Z,86.10
2018-12-08T15:04:18.699Z,85.90
2018-12-08T15:06:44.943Z,85.90
2018-12-08T15:09:11.083Z,85.90
2018-12-08T15:11:37.296Z,85.60
2018-12-08T15:14:03.572Z,85.10
2018-12-08T15:16:29.781Z,84.90
2018-12-08T15:18:55.931Z,85.40
2018-12-08T15:21:22.091Z,85.20
2018-12-08T15:23:48.307Z,85.20
2018-12-08T15:26:14.610Z,85.10
2018-12-08T15:28:47.788Z,84.30
2018-12-08T15:31:15.180Z,85.00
2018-12-08T15:33:41.423Z,84.80
2018-12-08T15:36:07.859Z,84.80
2018-12-08T15:38:34.223Z,84.90
2018-12-08T15:41:00.635Z,85.60
2018-12-08T15:43:26.784Z,85.60
2018-12-08T15:45:52.974Z,85.30
2018-12-08T15:48:19.421Z,85.40
2018-12-08T15:50:45.674Z,85.50
2018-12-08T15:53:11.834Z,85.40
2018-12-08T15:55:38.797Z,85.10
2018-12-08T15:58:05.098Z,85.30
2018-12-08T16:00:31.261Z,85.00
2018-12-08T16:02:57.452Z,84.70
2018-12-08T16:05:23.626Z,84.80
2018-12-08T16:07:49.791Z,84.70
2018-12-08T16:10:16.018Z,85.10
2018-12-08T16:12:42.176Z,84.90
2018-12-08T16:15:08.642Z,84.60
2018-12-08T16:17:34.936Z,84.40
2018-12-08T16:20:01.195Z,84.00
2018-12-08T16:22:27.502Z,84.10
2018-12-08T16:24:53.779Z,83.60
2018-12-08T16:27:19.935Z,83.70
2018-12-08T16:29:46.094Z,83.70
2018-12-08T16:32:12.439Z,83.70
2018-12-08T16:34:38.580Z,84.40
2018-12-08T16:37:04.766Z,83.50
2018-12-08T16:39:30.922Z,83.00
2018-12-08T16:41:57.083Z,83.40
2018-12-08T16:44:23.307Z,83.40
2018-12-08T16:46:49.576Z,83.70
2018-12-08T16:49:15.848Z,83.60
2018-12-08T16:51:42.027Z,83.70
2018-12-08T16:54:08.311Z,83.60
2018-12-08T16:56:34.643Z,83.40
2018-12-08T16:59:00.802Z,83.40
2018-12-08T17:01:27.084Z,83.00
2018-12-08T17:03:53.324Z,83.20
2018-12-08T17:06:19.603Z,83.20
2018-12-08T17:08:45.816Z,83.00
2018-12-08T17:11:12.109Z,83.10
2018-12-08T17:13:38.274Z,83.10
2018-12-08T17:16:04.530Z,83.50
2018-12-08T17:18:30.832Z,83.40
2018-12-08T17:20:56.986Z,83.30
2018-12-08T17:23:23.396Z,83.50
2018-12-08T17:25:49.743Z,82.90
2018-12-08T17:28:15.966Z,83.00
2018-12-08T17:30:42.151Z,83.00
2018-12-08T17:33:08.381Z,82.80
2018-12-08T17:35:34.583Z,82.70
2018-12-08T17:38:00.722Z,82.70
2018-12-08T17:40:26.907Z,82.60
2018-12-08T17:42:53.066Z,82.90
2018-12-08T17:45:19.335Z,82.70
2018-12-08T17:47:45.474Z,82.50
2018-12-08T17:50:11.751Z,81.50
2018-12-08T17:52:37.887Z,81.90
2018-12-08T17:55:04.575Z,82.20
2018-12-08T17:57:30.763Z,82.30
2018-12-08T17:59:56.940Z,81.80
2018-12-08T18:02:23.258Z,82.10
2018-12-08T18:04:49.458Z,81.50
2018-12-08T18:07:15.716Z,81.80
2018-12-08T18:09:41.922Z,81.50
2018-12-08T18:12:08.183Z,81.30
2018-12-08T18:14:34.362Z,81.50
2018-12-08T18:17:00.523Z,81.10
2018-12-08T18:19:26.735Z,81.30
2018-12-08T18:21:52.951Z,81.20
2018-12-08T18:24:19.190Z,81.20
2018-12-08T18:26:45.355Z,81.40
2018-12-08T18:29:11.550Z,81.30
2018-12-08T18:31:37.712Z,81.10
2018-12-08T18:34:03.875Z,81.10
2018-12-08T18:36:30.155Z,80.60
2018-12-08T18:38:56.297Z,80.50
2018-12-08T18:41:22.489Z,80.60
2018-12-08T18:43:48.646Z,80.90
2018-12-08T18:46:14.998Z,80.60
2018-12-08T18:48:41.192Z,79.80
2018-12-08T18:51:07.343Z,80.00
2018-12-08T18:53:33.502Z,79.90
2018-12-08T18:55:59.830Z,79.70
2018-12-08T18:58:26.068Z,79.60
2018-12-08T19:00:52.298Z,79.70
2018-12-08T19:03:18.442Z,79.40
2018-12-08T19:05:44.616Z,79.30
2018-12-08T19:08:10.783Z,79.40
2018-12-08T19:10:37.027Z,79.00
2018-12-08T19:13:03.172Z,79.00
2018-12-08T19:15:29.334Z,79.10
2018-12-08T19:17:55.474Z,79.10
2018-12-08T19:20:21.634Z,79.30
2018-12-08T19:22:47.791Z,79.40
2018-12-08T19:25:13.953Z,79.50
2018-12-08T19:27:40.204Z,80.10
2018-12-08T19:30:07.600Z,80.50
2018-12-08T19:32:33.768Z,80.80
2018-12-08T19:34:59.975Z,80.90
2018-12-08T19:37:26.131Z,80.90
2018-12-08T19:39:52.282Z,81.00
2018-12-08T19:42:18.414Z,80.90
2018-12-08T19:44:44.562Z,80.90
2018-12-08T19:47:10.704Z,80.90
2018-12-08T19:49:36.912Z,81.30
2018-12-08T19:52:03.186Z,81.30
2018-12-08T19:54:29.322Z,82.10
2018-12-08T19:56:55.500Z,83.10
2018-12-08T19:59:21.642Z,83.70
2018-12-08T20:01:47.827Z,84.40
2018-12-08T20:04:13.984Z,84.70
2018-12-08T20:06:40.143Z,85.70
2018-12-08T20:09:06.511Z,85.50
2018-12-08T20:11:32.667Z,86.40
2018-12-08T20:13:59.019Z,87.20
2018-12-08T20:16:25.368Z,86.50
2018-12-08T20:18:51.534Z,87.20
2018-12-08T20:21:17.698Z,87.50
2018-12-08T20:23:43.884Z,87.40
2018-12-08T20:26:10.142Z,87.30
2018-12-08T20:28:36.278Z,87.60
2018-12-08T20:31:02.607Z,88.10
2018-12-08T20:33:28.772Z,87.80
2018-12-08T20:35:54.966Z,87.90
2018-12-08T20:38:21.099Z,87.90
2018-12-08T20:40:47.282Z,88.00
2018-12-08T20:43:13.437Z,88.10
2018-12-08T20:45:39.603Z,88.20
2018-12-08T20:48:05.763Z,89.00
2018-12-08T20:50:32.003Z,89.30
2018-12-08T20:52:58.178Z,89.80
2018-12-08T20:55:26.365Z,90.10
2018-12-08T20:57:52.550Z,90.40
2018-12-08T21:00:18.756Z,90.70
2018-12-08T21:02:44.918Z,90.80
2018-12-08T21:05:11.195Z,91.00
2018-12-08T21:07:37.383Z,91.10
2018-12-08T21:10:04.710Z,91.30
2018-12-08T21:12:30.867Z,91.20
2018-12-08T21:14:57.135Z,91.20
2018-12-08T21:17:23.315Z,91.10
2018-12-08T21:19:49.447Z,91.10
2018-12-08T21:22:15.615Z,91.10
2018-12-08T21:24:41.789Z,91.00
2018-12-08T21:27:08.067Z,91.00
2018-12-08T21:29:34.270Z,90.90
2018-12-08T21:32:00.597Z,90.80
2018-12-08T21:34:26.849Z,90.80
2018-12-08T21:36:53.010Z,90.70
2018-12-08T21:39:20.170Z,90.70
2018-12-08T21:41:46.458Z,90.60
2018-12-08T21:44:12.639Z,90.30
2018-12-08T21:46:38.807Z,90.40
2018-12-08T21:49:04.958Z,90.40
2018-12-08T21:51:31.125Z,90.60
2018-12-08T21:53:57.382Z,90.40
2018-12-08T21:56:23.712Z,90.30
2018-12-08T21:58:49.865Z,90.50
2018-12-08T22:01:16.084Z,90.70
2018-12-08T22:03:42.223Z,90.80
2018-12-08T22:06:08.407Z,91.10
2018-12-08T22:08:34.598Z,91.20
2018-12-08T22:11:00.788Z,91.20
2018-12-08T22:13:27.020Z,91.30
2018-12-08T22:15:53.172Z,91.50
2018-12-08T22:18:19.311Z,91.50
2018-12-08T22:20:45.486Z,91.60
2018-12-08T22:23:11.666Z,91.60
2018-12-08T22:25:37.926Z,91.60
2018-12-08T22:28:04.198Z,91.60
2018-12-08T22:30:30.355Z,91.70
2018-12-08T22:32:56.522Z,91.70
2018-12-08T22:35:22.690Z,91.70
2018-12-08T22:37:48.858Z,91.40
2018-12-08T22:40:15.037Z,91.40
2018-12-08T22:42:41.325Z,91.00
2018-12-08T22:45:07.585Z,91.00
2018-12-08T22:47:33.795Z,91.20
2018-12-08T22:50:00.013Z,90.90
2018-12-08T22:52:26.205Z,90.90
2018-12-08T22:54:52.416Z,90.90
2018-12-08T22:57:18.571Z,90.90
2018-12-08T22:59:44.846Z,90.90
2018-12-08T23:02:11.115Z,90.80
2018-12-08T23:04:37.273Z,90.60
2018-12-08T23:07:03.469Z,90.30
2018-12-08T23:09:29.956Z,90.20
2018-12-08T23:11:56.258Z,90.20
2018-12-08T23:14:22.532Z,90.20
2018-12-08T23:16:48.690Z,89.90
2018-12-08T23:19:14.891Z,90.00
2018-12-08T23:21:41.059Z,89.60
2018-12-08T23:24:07.217Z,89.40
2018-12-08T23:26:33.406Z,89.40
2018-12-08T23:28:59.607Z,89.70
2018-12-08T23:31:25.935Z,89.60
2018-12-08T23:33:52.256Z,90.00
2018-12-08T23:36:18.412Z,90.20
2018-12-08T23:38:44.551Z,90.50
2018-12-08T23:41:10.874Z,90.90
2018-12-08T23:43:37.070Z,91.10
2018-12-08T23:46:03.218Z,91.20
2018-12-08T23:48:29.379Z,91.40
2018-12-08T23:50:55.554Z,91.50
2018-12-08T23:53:21.719Z,91.20
2018-12-08T23:55:47.888Z,91.10
2018-12-08T23:58:14.275Z,91.20
